Latest Weather Observations for Clare

IDS60801

Issued at 8:05 pm CST Wednesday 27 August 2014 (issued every 30 minutes, with the page automatically refreshed every 10 minutes)

About weather observations | Map of weather stations | Latest weather observations for SA | Other Formats
Station Details ID: 021131 Name: CLARE HIGH SCHOOL Lat: -33.82 Lon: 138.59 Height: 395.0 m
Data from the previous 72 hours. | See also: Recent months at Clare
Date/Time
CST
Temp
°C
App
Temp
°C
Dew
Point
Rel
Hum
%
Delta-T
°C
Wind Press
QNH
hPa
Press
MSL
hPa
Rain
since 9 am
mm
Dir
 
Spd
km/h
Gust
km/h
Spd
kts
Gust
kts
27/08:00pm 8.0 7.0 5.8 86 1.0 E 0 0 0 0 1027.7 - 0.0
27/07:30pm 9.6 8.8 6.7 82 1.4 ESE 0 0 0 0 1027.5 - 0.0
27/07:00pm 10.5 9.8 6.8 78 1.8 CALM 0 0 0 0 1027.0 - 0.0
27/06:30pm 12.0 11.3 6.9 71 2.5 CALM 0 0 0 0 1026.7 - 0.0
27/06:00pm 13.9 13.3 7.2 64 3.3 CALM 0 0 0 0 1026.4 1026.8 0.0
27/05:30pm 16.7 15.3 7.1 53 4.9 E 4 7 2 4 1026.2 - 0.0
27/05:00pm 17.7 15.1 6.3 47 5.7 ENE 9 15 5 8 1026.0 - 0.0
27/04:30pm 18.0 15.8 6.2 46 5.9 NE 7 11 4 6 1026.0 - 0.0
27/04:00pm 18.3 15.9 7.1 48 5.7 ENE 9 13 5 7 1025.6 - 0.0
27/03:30pm 18.3 15.9 7.1 48 5.7 NE 9 15 5 8 1025.8 - 0.0
27/03:00pm 18.1 15.5 6.3 46 5.9 ENE 9 17 5 9 1025.8 1026.3 0.0
27/02:30pm 18.6 17.0 8.6 52 5.3 ENE 7 13 4 7 1026.0 - 0.0
27/02:00pm 17.9 15.6 7.6 51 5.3 NNE 9 17 5 9 1026.0 - 0.0
27/01:30pm 17.5 15.2 7.3 51 5.2 E 9 17 5 9 1026.1 - 0.0
27/01:00pm 17.5 15.4 8.1 54 4.9 NE 9 15 5 8 1026.2 - 0.0
27/12:30pm 17.5 14.9 7.8 53 5.0 NE 11 22 6 12 1026.7 - 0.0
27/12:00pm 16.9 14.6 7.3 53 4.9 NE 9 15 5 8 1027.2 1027.7 0.0
27/11:30am 16.8 14.6 9.2 61 4.0 NE 11 19 6 10 1027.4 - 0.0
27/11:00am 16.4 13.6 8.6 60 4.1 NE 13 19 7 10 1027.4 - 0.0
27/10:30am 15.5 12.5 7.5 59 4.1 NE 13 20 7 11 1027.6 - 0.0
27/10:00am 15.1 11.6 7.4 60 3.9 NE 15 20 8 11 1027.6 - 0.0
27/09:30am 14.7 11.7 7.5 62 3.6 NE 13 19 7 10 1027.5 - 0.0
27/09:00am 13.8 11.7 6.7 62 3.5 NNE 7 11 4 6 1027.4 1027.9 0.0
27/08:30am 12.4 9.5 6.7 68 2.8 E 11 17 6 9 1027.0 - 0.0
27/08:00am 8.9 6.3 6.3 84 1.2 E 9 11 5 6 1026.9 - 0.0
27/07:30am 4.4 1.2 3.2 92 0.5 SSW 9 11 5 6 1026.7 - 0.0
27/07:00am 2.3 0.2 1.9 97 0.2 ESE 2 9 1 5 1026.7 - 0.0
27/06:30am 2.6 -0.2 2.2 97 0.2 E 6 9 3 5 1026.0 - 0.0
27/06:00am 2.8 0.8 2.4 97 0.2 ESE 2 7 1 4 1025.8 1026.3 0.0
27/05:30am 2.7 1.0 2.1 96 0.2 CALM 0 2 0 1 1025.7 - 0.0
27/05:00am 3.4 1.1 2.8 96 0.2 E 4 7 2 4 1025.3 - 0.0
27/04:30am 4.0 2.2 3.6 97 0.2 ESE 2 6 1 3 1025.0 - 0.0
27/04:00am 3.7 2.3 3.3 97 0.2 CALM 0 0 0 0 1024.8 - 0.0
27/03:30am 3.3 1.7 2.6 95 0.3 CALM 0 0 0 0 1024.8 - 0.0
27/03:00am 3.4 1.8 2.7 95 0.3 CALM 0 0 0 0 1024.8 1025.3 0.0
27/02:30am 3.7 2.1 2.7 93 0.4 CALM 0 0 0 0 1025.1 - 0.0
27/02:00am 4.9 2.4 3.9 93 0.4 E 6 11 3 6 1025.1 - 0.0
27/01:30am 4.6 2.8 3.6 93 0.4 ESE 2 7 1 4 1025.2 - 0.0
27/01:00am 4.9 2.7 3.2 89 0.7 E 4 7 2 4 1025.4 - 0.0
27/12:30am 5.7 3.2 4.0 89 0.7 E 6 9 3 5 1025.2 - 0.0
27/12:00am 6.3 3.7 3.3 81 1.3 E 6 9 3 5 1025.5 1026.0 0.0
 
Date/Time
CST
Temp
°C
App
Temp
°C
Dew
Point
Rel
Hum
%
Delta-T
°C
Wind Press
QNH
hPa
Press
MSL
hPa
Rain
since 9 am
mm
Dir
 
Spd
km/h
Gust
km/h
Spd
kts
Gust
kts
26/11:30pm 7.9 5.5 4.5 79 1.5 E 6 9 3 5 1025.2 - 0.0
26/11:00pm 8.2 5.9 4.6 78 1.6 E 6 9 3 5 1025.3 - 0.0
26/10:30pm 8.1 5.8 5.0 81 1.4 E 6 7 3 4 1025.5 - 0.0
26/10:00pm 6.6 5.4 4.8 88 0.8 CALM 0 0 0 0 1025.6 - 0.0
26/09:30pm 7.1 5.5 4.6 84 1.1 E 2 7 1 4 1025.6 - 0.0
26/09:00pm 7.4 5.2 5.2 86 1.0 ESE 6 7 3 4 1025.6 1026.1 0.0
26/08:30pm 7.5 5.7 5.6 88 0.9 ESE 4 7 2 4 1025.4 - 0.0
26/08:00pm 7.7 5.9 5.5 86 1.0 ESE 4 9 2 5 1025.2 - 0.0
26/07:30pm 8.8 7.9 6.1 83 1.3 CALM 0 0 0 0 1025.0 - 0.0
26/07:00pm 9.6 8.7 6.1 79 1.7 CALM 0 0 0 0 1024.9 - 0.0
26/06:30pm 11.2 9.7 6.7 74 2.2 E 4 6 2 3 1024.8 - 0.0
26/06:00pm 13.0 11.5 6.8 66 3.0 E 4 6 2 3 1024.5 1025.0 0.0
26/05:30pm 15.4 13.3 5.6 52 4.8 E 6 9 3 5 1024.1 - 0.0
26/05:00pm 16.4 14.2 6.0 50 5.2 E 7 11 4 6 1023.9 - 0.0
26/04:30pm 16.7 14.6 6.8 52 5.0 ENE 7 9 4 5 1023.8 - 0.0
26/04:00pm 17.3 15.6 8.2 55 4.7 ENE 7 11 4 6 1023.8 - 0.0
26/03:30pm 16.9 14.8 6.7 51 5.1 E 7 11 4 6 1023.9 - 0.0
26/03:00pm 17.0 15.1 6.5 50 5.3 ENE 6 9 3 5 1024.0 1024.4 0.0
26/02:30pm 16.4 14.4 8.6 60 4.1 NE 9 15 5 8 1024.1 - 0.0
26/02:00pm 16.2 14.1 8.4 60 4.0 NE 9 17 5 9 1024.3 - 0.0
26/01:30pm 16.2 13.9 8.9 62 3.8 NNE 11 19 6 10 1024.7 - 0.0
26/01:00pm 15.2 13.0 8.0 62 3.7 NE 9 15 5 8 1025.0 - 0.0
26/12:30pm 14.6 12.1 8.1 65 3.3 NNE 11 20 6 11 1025.2 - 0.0
26/12:00pm 14.1 11.8 8.9 71 2.7 NNE 11 17 6 9 1025.8 1026.3 0.0
26/11:30am 13.1 10.3 7.1 67 3.0 NNE 11 20 6 11 1026.5 - 0.0
26/11:00am 12.3 9.6 9.0 80 1.7 NE 13 19 7 10 1027.0 - 0.0
26/10:30am 10.7 7.5 8.3 85 1.2 ENE 15 24 8 13 1027.4 - 0.0
26/10:00am 9.9 6.7 8.5 91 0.7 ENE 15 20 8 11 1027.6 - 0.0
26/09:30am 9.4 6.4 7.8 90 0.8 ENE 13 20 7 11 1027.6 - 0.0
26/09:00am 8.0 5.8 7.9 99 0.0 NE 9 13 5 7 1027.7 1028.2 0.2
26/08:30am 6.7 4.2 6.7 100 0.0 NE 9 17 5 9 1027.6 - 0.2
26/08:00am 5.9 2.9 5.9 100 0.0 E 11 19 6 10 1027.3 - 0.2
26/07:30am 5.5 2.4 5.5 100 0.0 E 11 15 6 8 1026.9 - 0.2
26/07:00am 4.8 1.9 4.7 99 0.0 E 9 15 5 8 1026.8 - 0.2
26/06:30am 4.7 2.1 4.4 98 0.1 E 7 9 4 5 1026.6 - 0.2
26/06:00am 5.2 2.9 4.8 97 0.2 E 6 9 3 5 1026.5 1027.0 0.2
26/05:30am 5.7 3.2 5.0 95 0.3 E 7 11 4 6 1026.3 - 0.2
26/05:00am 5.6 3.3 4.6 93 0.4 E 6 9 3 5 1026.2 - 0.2
26/04:30am 5.0 2.6 4.4 96 0.3 E 6 9 3 5 1026.0 - 0.2
26/04:00am 4.8 2.8 4.2 96 0.3 ESE 4 9 2 5 1026.1 - 0.2
26/03:30am 5.3 3.3 4.4 94 0.4 E 4 7 2 4 1026.1 - 0.2
26/03:00am 5.9 3.6 4.7 92 0.5 E 6 7 3 4 1026.2 1026.6 0.2
26/02:30am 6.4 4.1 5.0 91 0.6 ESE 6 11 3 6 1026.6 - 0.2
26/02:00am 6.2 3.9 4.8 91 0.6 ESE 6 11 3 6 1026.9 - 0.2
26/01:30am 6.2 3.9 4.7 90 0.7 ESE 6 9 3 5 1027.0 - 0.2
26/01:00am 6.7 4.3 5.2 90 0.7 ESE 7 9 4 5 1027.3 - 0.2
26/12:30am 7.1 4.8 5.6 90 0.7 ESE 7 11 4 6 1027.4 - 0.2
26/12:00am 6.9 4.7 5.4 90 0.7 ESE 6 11 3 6 1027.5 1028.0 0.2
 
Date/Time
CST
Temp
°C
App
Temp
°C
Dew
Point
Rel
Hum
%
Delta-T
°C
Wind Press
QNH
hPa
Press
MSL
hPa
Rain
since 9 am
mm
Dir
 
Spd
km/h
Gust
km/h
Spd
kts
Gust
kts
25/11:30pm 6.8 4.7 5.6 92 0.5 ESE 6 9 3 5 1027.6 - 0.2
25/11:00pm 4.5 1.8 3.9 96 0.3 ESE 7 9 4 5 1027.8 - 0.2
25/10:30pm 4.8 2.3 3.9 94 0.4 ESE 6 7 3 4 1028.0 - 0.2
25/10:00pm 5.2 2.7 4.5 95 0.3 ESE 7 11 4 6 1028.2 - 0.2
25/09:30pm 4.6 3.3 3.9 95 0.3 CALM 0 0 0 0 1028.3 - 0.2
25/09:00pm 5.1 3.8 4.2 94 0.4 CALM 0 0 0 0 1028.4 1028.9 0.2
25/08:30pm 5.9 4.7 4.4 90 0.7 CALM 0 0 0 0 1028.4 - 0.2
25/08:00pm 6.7 5.6 5.2 90 0.7 CALM 0 0 0 0 1028.4 - 0.2
25/07:30pm 7.2 6.1 5.2 87 0.9 CALM 0 0 0 0 1028.1 - 0.2
25/07:00pm 8.8 7.8 5.5 80 1.5 CALM 0 0 0 0 1027.8 - 0.2
25/06:30pm 9.9 9.0 5.9 76 1.9 CALM 0 0 0 0 1027.6 - 0.2
25/06:00pm 12.2 10.3 6.5 68 2.7 SSW 6 9 3 5 1027.5 1028.0 0.2
25/05:30pm 14.7 12.6 6.5 58 4.1 SW 7 9 4 5 1027.4 - 0.2
25/05:00pm 15.6 12.7 6.6 55 4.5 WSW 11 13 6 7 1027.3 - 0.2
25/04:30pm 16.4 14.0 7.1 54 4.7 WSW 9 15 5 8 1027.2 - 0.2
25/04:00pm 17.1 14.7 7.2 52 5.0 SW 9 13 5 7 1027.3 - 0.2
25/03:30pm 17.4 15.5 7.7 53 5.0 WSW 7 13 4 7 1027.2 - 0.2
25/03:00pm 17.1 14.9 8.0 55 4.7 W 9 15 5 8 1027.2 1027.7 0.2
25/02:30pm 17.1 14.1 4.1 42 6.2 NW 9 15 5 8 1027.6 - 0.2
25/02:00pm 17.1 15.2 7.5 53 4.9 NNW 7 11 4 6 1027.8 - 0.2
25/01:30pm 17.0 14.5 5.0 45 5.8 NNW 7 13 4 7 1028.1 - 0.2
25/01:00pm 16.9 14.9 4.3 43 6.1 N 4 9 2 5 1028.8 - 0.2
25/12:30pm 16.0 13.7 5.9 51 5.0 NNE 7 15 4 8 1029.3 - 0.2
25/12:00pm 14.9 12.9 7.2 60 3.8 NE 7 13 4 7 1029.8 1030.3 0.2
25/11:30am 14.1 12.4 8.5 69 2.9 E 7 11 4 6 1030.2 - 0.0
25/11:00am 13.5 11.6 7.5 67 3.0 ENE 7 11 4 6 1030.4 - 0.0
25/10:30am 12.4 10.4 7.1 70 2.6 NE 7 11 4 6 1030.7 - 0.0
25/10:00am 11.2 9.2 7.1 76 2.0 ENE 7 11 4 6 1030.9 - 0.0
25/09:30am 10.4 8.5 7.5 82 1.4 NE 7 9 4 5 1031.0 - 0.0
25/09:00am 9.0 6.8 6.4 84 1.2 NE 7 9 4 5 1031.1 1031.7 0.0
25/08:30am 7.4 5.6 5.4 87 0.9 ENE 4 9 2 5 1031.1 - 0.0
25/08:00am 5.4 4.3 5.0 97 0.2 CALM 0 0 0 0 1031.0 - 0.0
25/07:30am 4.7 2.2 4.7 100 0.0 E 7 11 4 6 1030.9 - 0.0
25/07:00am 2.1 -0.4 1.8 98 0.1 E 4 6 2 3 1030.7 - 0.0
25/06:30am 2.9 0.6 2.6 98 0.1 E 4 7 2 4 1030.6 - 0.0
25/06:00am 2.9 0.6 2.5 97 0.2 E 4 7 2 4 1030.2 1030.7 0.0
25/05:30am 4.7 2.1 4.4 98 0.1 E 7 11 4 6 1029.9 - 0.0
25/05:00am 4.7 2.1 4.4 98 0.1 E 7 11 4 6 1029.6 - 0.0
25/04:30am 4.8 2.2 4.4 97 0.2 E 7 11 4 6 1029.6 - 0.0
25/04:00am 5.1 2.2 4.8 98 0.1 E 9 17 5 9 1029.6 - 0.0
25/03:30am 4.5 - 4.6 - - E 9 17 5 9 1029.3 - 0.0
25/03:00am 1.0 -0.8 0.9 99 0.0 CALM 0 0 0 0 1029.3 1029.8 0.0
25/02:30am 1.5 -0.3 1.4 99 0.0 CALM 0 0 0 0 1029.5 - 0.0
25/02:00am 1.8 0.0 1.5 98 0.1 CALM 0 0 0 0 1029.4 - 0.0
25/01:30am 2.7 1.1 2.6 99 0.0 CALM 0 0 0 0 1029.6 - 0.0
25/01:00am 3.3 1.8 3.2 99 0.0 CALM 0 0 0 0 1029.7 - 0.0
25/12:30am 3.4 2.0 3.3 99 0.0 CALM 0 0 0 0 1029.9 - 0.0
25/12:00am 3.2 0.9 2.9 98 0.1 E 4 7 2 4 1030.0 1030.5 0.0
 
Date/Time
CST
Temp
°C
App
Temp
°C
Dew
Point
Rel
Hum
%
Delta-T
°C
Wind Press
QNH
hPa
Press
MSL
hPa
Rain
since 9 am
mm
Dir
 
Spd
km/h
Gust
km/h
Spd
kts
Gust
kts
24/11:30pm 3.5 1.7 3.2 98 0.1 ESE 2 6 1 3 1030.1 - 0.0
24/11:00pm 3.5 2.0 2.9 96 0.2 CALM 0 0 0 0 1030.2 - 0.0
24/10:30pm 4.1 2.7 3.4 95 0.3 CALM 0 0 0 0 1030.3 - 0.0
24/10:00pm 5.0 2.9 3.8 92 0.5 ESE 4 9 2 5 1030.4 - 0.0
24/09:30pm 6.0 3.6 4.5 90 0.7 ESE 6 9 3 5 1030.3 - 0.0
24/09:00pm 7.6 5.4 5.1 84 1.1 ESE 6 9 3 5 1030.3 1030.8 0.0
24/08:30pm 8.5 6.2 5.6 82 1.3 ESE 7 9 4 5 1030.4 - 0.0

Other Formats:

Comma delimited format used in spreadsheet applications
http://www.bom.gov.au/fwo/IDS60801/IDS60801.95667.axf

JavaScript Object Notation format (JSON) in row-major order
http://www.bom.gov.au/fwo/IDS60801/IDS60801.95667.json